WXcenter Banner NOAA Logo links to NOAA website FRD Logo links to FRD website

NOAA INL CURRENT OBSERVATIONS


NOAA AIR RESOURCES LABORATORY
MESONET WEATHER CONDITIONS FOR 25-Jan-20

Towers located at INL Facilities:

                      Time  Dir/Spd  Temp  WC  RH  Pres.
Location              MST   deg/mph   (F)  (F)  %  In.Hg

ATR                  06:55  222/  7    24  16  99  25.16
CFA                  06:55  250/  7    25  17  93  25.14
CIT                  06:55   85/  6    27  20  94  25.16
INTEC                06:55  218/  3    26  22  92  25.17
MFC                  06:55   90/  2    25  25  93  24.96
NRF                  06:55  103/  3    25  25  92  25.22
RWMC                 06:55  264/  6    24  16  93  25.05
SMC                  06:55  350/  9    27  18  81  25.25

Other towers located inside the INL:

                      Time  Dir/Spd  Temp  WC  RH  Pres.
Location              MST   deg/mph   (F)  (F)  %  In.Hg

Base of Howe Peak    06:55  197/  4    21  15  94  25.18
Deadman Canyon       06:55  203/  3    25  21  97  24.97
Lost River           06:55  245/  7    24  16  91  25.09
Rover                06:55  331/  3    28  24  99  25.06
Sand Dunes           06:55   42/  7    27  20  88  25.24

Towers located outside the INL:

                      Time  Dir/Spd  Temp  WC  RH  Pres.
Location              MST   deg/mph   (F)  (F)  %  In.Hg

Aberdeen             06:55  304/  3    33  30 100  25.64
Arco                 06:55  328/  5    18  11  89
Atomic City          06:55  162/  4    27  23  90  25.05
Blackfoot            06:55  199/  4    34  30  87  25.57
Blue Dome            06:55  335/ 13    21   9  86
Cox's Well           06:55  333/  1    23  23 100
Craters of the Moon  06:55   45/ --    23  --  90  24.15
Dubois               06:55   73/  4    27  23  92  24.64
Fort Hall            06:55  136/  4    34  30  94  25.59
Hamer                06:55   43/  2    29  29 100
Howe                 06:55  318/ 14    20   6  84
Idaho Falls (REC)    06:55  231/  4    33  28  92  25.37
Kettle Butte         06:55  253/  5    29  23  90  24.90
Minidoka             06:55  129/  9    33  25  96  25.76
Monteview            06:55   61/  4    27  23  96  25.28
Richfield            06:55  ---/ --    25  --  94  25.72
Roberts              06:55  206/  2    31  31  99
Sugar City           06:55  ---/ --    32  --  --  25.18
Taber                06:55  235/  4    29  26  90
Terreton             06:55  191/  4    29  25  91  25.29

Updated every 5 minutes. Unreviewed data; maintenance may cause some errors.
Current conditions: 526-8884   Info: 526-2744
            

This page automatically refreshes every 5 minutes.


Modified: March 1, 2011
Dept. of Commerce |  NOAA |  NOAA Research |  ARL |  FRD Privacy |  Disclaimer |  Information Quality |  webmaster